createdAt,value
2023-03-12T00:02:19.213Z,2.00
2023-03-12T00:04:45.864Z,2.00
2023-03-12T00:07:12.533Z,2.10
2023-03-12T00:09:39.601Z,2.00
2023-03-12T00:12:07.389Z,2.10
2023-03-12T00:14:34.361Z,2.10
2023-03-12T00:17:01.073Z,2.10
2023-03-12T00:19:28.133Z,2.10
2023-03-12T00:21:54.943Z,2.10
2023-03-12T00:24:21.587Z,2.10
2023-03-12T00:26:48.499Z,2.10
2023-03-12T00:29:15.240Z,2.10
2023-03-12T00:31:41.950Z,2.20
2023-03-12T00:34:10.009Z,2.10
2023-03-12T00:36:36.705Z,2.20
2023-03-12T00:39:04.183Z,2.10
2023-03-12T00:41:30.939Z,2.20
2023-03-12T00:43:57.930Z,2.20
2023-03-12T00:46:24.826Z,2.10
2023-03-12T00:48:51.825Z,2.10
2023-03-12T00:51:18.821Z,2.10
2023-03-12T00:53:45.855Z,2.10
2023-03-12T00:56:12.503Z,2.10
2023-03-12T00:58:39.176Z,2.10
2023-03-12T01:01:05.965Z,2.00
2023-03-12T01:03:32.925Z,2.00
2023-03-12T01:05:59.885Z,1.90
2023-03-12T01:08:26.956Z,1.90
2023-03-12T01:10:53.780Z,1.90
2023-03-12T01:13:21.122Z,1.90
2023-03-12T01:15:47.835Z,1.90
2023-03-12T01:18:14.826Z,1.90
2023-03-12T01:20:41.792Z,1.80
2023-03-12T01:23:08.855Z,1.80
2023-03-12T01:25:36.453Z,1.90
2023-03-12T01:28:03.209Z,1.90
2023-03-12T01:30:30.645Z,1.90
2023-03-12T01:32:57.334Z,1.90
2023-03-12T01:35:24.514Z,1.90
2023-03-12T01:37:51.173Z,1.90
2023-03-12T01:40:20.301Z,2.00
2023-03-12T01:42:57.647Z,2.00
2023-03-12T01:45:58.505Z,2.00
2023-03-12T01:48:26.033Z,2.20
2023-03-12T01:50:52.648Z,2.10
2023-03-12T01:53:19.501Z,2.20
2023-03-12T01:55:46.497Z,2.30
2023-03-12T01:58:13.536Z,2.20
2023-03-12T02:00:40.444Z,2.20
2023-03-12T02:03:10.339Z,2.20
2023-03-12T02:05:51.308Z,2.20
2023-03-12T02:08:19.058Z,2.20
2023-03-12T02:10:46.492Z,2.20
2023-03-12T02:13:13.317Z,2.20
2023-03-12T02:15:40.335Z,2.10
2023-03-12T02:18:09.514Z,2.20
2023-03-12T02:21:02.521Z,2.10
2023-03-12T02:23:38.223Z,2.20
2023-03-12T02:26:06.435Z,2.20
2023-03-12T02:28:35.267Z,2.20
2023-03-12T02:31:03.916Z,2.20
2023-03-12T02:33:30.574Z,2.10
2023-03-12T02:35:57.220Z,2.10
2023-03-12T02:38:45.608Z,2.10
2023-03-12T02:41:14.873Z,2.20
2023-03-12T02:43:45.453Z,2.20
2023-03-12T02:46:12.954Z,2.00
2023-03-12T02:48:39.688Z,2.00
2023-03-12T02:51:07.014Z,2.00
2023-03-12T02:53:33.992Z,2.00
2023-03-12T02:56:00.827Z,2.00
2023-03-12T02:58:27.712Z,2.00
2023-03-12T03:00:54.649Z,1.90
2023-03-12T03:03:21.375Z,1.80
2023-03-12T03:05:47.997Z,1.90
2023-03-12T03:08:14.827Z,1.80
2023-03-12T03:10:41.492Z,1.90
2023-03-12T03:13:08.504Z,1.90
2023-03-12T03:15:35.282Z,1.90
2023-03-12T03:18:03.945Z,1.80
2023-03-12T03:20:32.200Z,1.80
2023-03-12T03:22:58.918Z,1.80
2023-03-12T03:25:26.039Z,1.70
2023-03-12T03:27:52.913Z,1.70
2023-03-12T03:30:21.335Z,1.70
2023-03-12T03:32:50.020Z,1.70
2023-03-12T03:35:17.446Z,1.70
2023-03-12T03:37:50.272Z,1.80
2023-03-12T03:40:17.416Z,1.90
2023-03-12T03:42:44.120Z,1.90
2023-03-12T03:45:10.930Z,2.00
2023-03-12T03:47:37.945Z,2.00
2023-03-12T03:50:06.075Z,2.10
2023-03-12T03:52:33.100Z,2.10
2023-03-12T03:54:59.816Z,2.20
2023-03-12T03:57:27.276Z,2.20
2023-03-12T03:59:54.375Z,2.20
2023-03-12T04:02:21.750Z,2.30
2023-03-12T04:04:48.379Z,2.30
2023-03-12T04:07:15.246Z,2.30
2023-03-12T04:09:42.122Z,2.30
2023-03-12T04:12:09.221Z,2.30
2023-03-12T04:14:38.805Z,2.30
2023-03-12T04:17:05.678Z,2.30
2023-03-12T04:19:32.265Z,2.30
2023-03-12T04:21:58.928Z,2.30
2023-03-12T04:24:25.743Z,2.30
2023-03-12T04:26:52.439Z,2.30
2023-03-12T04:29:20.044Z,2.30
2023-03-12T04:31:47.013Z,2.20
2023-03-12T04:34:14.653Z,2.20
2023-03-12T04:36:41.864Z,2.20
2023-03-12T04:39:08.724Z,2.10
2023-03-12T04:41:36.244Z,2.10
2023-03-12T04:44:03.659Z,2.10
2023-03-12T04:46:30.414Z,2.10
2023-03-12T04:48:58.153Z,2.10
2023-03-12T04:51:25.416Z,2.10
2023-03-12T04:53:52.094Z,2.10
2023-03-12T04:56:18.882Z,2.10
2023-03-12T04:58:45.815Z,2.10
2023-03-12T05:01:25.368Z,2.10
2023-03-12T05:03:52.767Z,2.00
2023-03-12T05:06:20.426Z,2.10
2023-03-12T05:08:48.204Z,2.10
2023-03-12T05:11:15.345Z,2.10
2023-03-12T05:13:43.058Z,2.10
2023-03-12T05:16:11.323Z,2.10
2023-03-12T05:18:38.548Z,2.10
2023-03-12T05:21:07.160Z,2.10
2023-03-12T05:23:34.650Z,2.10
2023-03-12T05:26:02.074Z,2.10
2023-03-12T05:28:29.251Z,2.10
2023-03-12T05:30:57.785Z,2.10
2023-03-12T05:33:25.297Z,2.10
2023-03-12T05:35:52.325Z,2.10
2023-03-12T05:38:19.439Z,2.00
2023-03-12T05:40:57.431Z,2.00
2023-03-12T05:43:24.298Z,2.10
2023-03-12T05:45:51.395Z,2.10
2023-03-12T05:48:18.240Z,2.10
2023-03-12T05:50:45.622Z,2.10
2023-03-12T05:53:12.323Z,2.10
2023-03-12T05:55:40.364Z,2.10
2023-03-12T05:58:07.984Z,2.10
2023-03-12T06:00:38.857Z,2.10
2023-03-12T06:03:06.120Z,2.00
2023-03-12T06:05:35.304Z,2.10
2023-03-12T06:08:03.410Z,2.10
2023-03-12T06:10:30.071Z,2.10
2023-03-12T06:12:58.020Z,2.10
2023-03-12T06:15:24.624Z,2.10
2023-03-12T06:17:51.410Z,2.20
2023-03-12T06:20:18.149Z,2.20
2023-03-12T06:22:44.762Z,2.20
2023-03-12T06:25:11.619Z,2.20
2023-03-12T06:27:38.275Z,2.20
2023-03-12T06:30:05.489Z,2.10
2023-03-12T06:32:32.315Z,2.20
2023-03-12T06:35:00.682Z,2.20
2023-03-12T06:37:27.880Z,2.20
2023-03-12T06:39:54.878Z,2.10
2023-03-12T06:42:22.766Z,2.20
2023-03-12T06:44:50.347Z,2.20
2023-03-12T06:47:17.768Z,2.20
2023-03-12T06:49:44.678Z,2.20
2023-03-12T06:52:11.609Z,2.20
2023-03-12T06:54:38.512Z,2.30
2023-03-12T06:57:05.120Z,2.30
2023-03-12T06:59:31.778Z,2.30
2023-03-12T07:01:58.742Z,2.40
2023-03-12T07:04:25.570Z,2.40
2023-03-12T07:06:52.545Z,2.40
2023-03-12T07:09:19.813Z,2.40
2023-03-12T07:11:46.637Z,2.50
2023-03-12T07:14:13.957Z,2.50
2023-03-12T07:16:41.080Z,2.60
2023-03-12T07:19:07.757Z,2.60
2023-03-12T07:21:34.592Z,2.60
2023-03-12T07:24:06.753Z,2.60
2023-03-12T07:26:35.318Z,2.70
2023-03-12T07:29:03.965Z,2.70
2023-03-12T07:31:30.793Z,2.80
2023-03-12T07:33:57.620Z,2.80
2023-03-12T07:36:24.886Z,2.80
2023-03-12T07:38:51.753Z,2.90
2023-03-12T07:41:19.844Z,2.90
2023-03-12T07:43:47.315Z,3.00
2023-03-12T07:46:16.344Z,3.00
2023-03-12T07:48:44.404Z,3.10
2023-03-12T07:51:11.448Z,3.10
2023-03-12T07:53:38.942Z,3.10
2023-03-12T07:56:06.356Z,3.10
2023-03-12T07:58:36.658Z,3.30
2023-03-12T08:01:03.532Z,3.40
2023-03-12T08:03:30.956Z,3.40
2023-03-12T08:06:03.394Z,3.40
2023-03-12T08:08:31.583Z,3.40
2023-03-12T08:11:01.162Z,3.50
2023-03-12T08:13:28.150Z,3.50
2023-03-12T08:15:55.591Z,3.60
2023-03-12T08:18:22.904Z,3.60
2023-03-12T08:20:54.254Z,3.70
2023-03-12T08:23:22.061Z,3.70
2023-03-12T08:25:50.315Z,3.80
2023-03-12T08:28:18.122Z,3.80
2023-03-12T08:31:04.814Z,3.80
2023-03-12T08:33:31.581Z,3.80
2023-03-12T08:35:58.478Z,3.90
2023-03-12T08:38:25.641Z,3.90
2023-03-12T08:41:00.154Z,3.90
2023-03-12T08:43:29.459Z,4.00
2023-03-12T08:45:58.699Z,4.10
2023-03-12T08:48:26.293Z,4.10
2023-03-12T08:50:56.471Z,4.20
2023-03-12T08:53:24.310Z,4.20
2023-03-12T08:55:55.710Z,4.20
2023-03-12T08:58:24.994Z,4.30
2023-03-12T09:00:52.677Z,4.30
2023-03-12T09:03:21.539Z,4.30
2023-03-12T09:05:49.715Z,4.40
2023-03-12T09:08:18.537Z,4.40
2023-03-12T09:10:52.221Z,4.50
2023-03-12T09:13:21.141Z,4.50
2023-03-12T09:15:47.924Z,4.50
2023-03-12T09:18:14.634Z,4.60
2023-03-12T09:20:42.888Z,4.60
2023-03-12T09:23:09.678Z,4.70
2023-03-12T09:25:36.416Z,4.70
2023-03-12T09:28:03.055Z,4.60
2023-03-12T09:30:30.664Z,4.70
2023-03-12T09:32:57.511Z,4.70
2023-03-12T09:35:24.360Z,4.70
2023-03-12T09:37:51.502Z,4.70
2023-03-12T09:40:23.131Z,4.70
2023-03-12T09:42:57.694Z,4.80
2023-03-12T09:45:35.097Z,4.90
2023-03-12T09:48:05.346Z,5.00
2023-03-12T09:50:43.761Z,5.00
2023-03-12T09:53:29.152Z,5.00
2023-03-12T09:55:58.452Z,5.10
2023-03-12T09:58:27.335Z,5.10
2023-03-12T10:01:01.202Z,5.20
2023-03-12T10:03:44.317Z,5.20
2023-03-12T10:06:21.447Z,5.30
2023-03-12T10:09:22.308Z,5.30
2023-03-12T10:12:10.528Z,5.30
2023-03-12T10:14:55.823Z,5.40
2023-03-12T10:17:57.942Z,5.40
2023-03-12T10:20:50.863Z,5.50
2023-03-12T10:23:39.119Z,5.50
2023-03-12T10:26:13.657Z,5.50
2023-03-12T10:28:53.590Z,5.60
2023-03-12T10:31:32.506Z,5.70
2023-03-12T10:34:02.244Z,5.70
2023-03-12T10:36:36.760Z,5.80
2023-03-12T10:39:05.557Z,5.80
2023-03-12T10:41:34.870Z,5.70
2023-03-12T10:44:07.047Z,5.80
2023-03-12T10:47:07.007Z,5.80
2023-03-12T10:49:36.723Z,5.90
2023-03-12T10:52:06.338Z,5.80
2023-03-12T10:54:40.788Z,5.80
2023-03-12T10:57:08.656Z,5.70
2023-03-12T10:59:39.307Z,5.60
2023-03-12T11:02:30.071Z,5.60
2023-03-12T11:04:57.997Z,5.50
2023-03-12T11:07:29.096Z,5.60
2023-03-12T11:10:08.127Z,5.60
2023-03-12T11:12:37.884Z,5.60
2023-03-12T11:15:28.137Z,5.60
2023-03-12T11:18:20.553Z,5.80
2023-03-12T11:20:52.474Z,5.70
2023-03-12T11:23:33.275Z,5.80
2023-03-12T11:26:08.512Z,5.70
2023-03-12T11:28:45.306Z,5.70
2023-03-12T11:38:18.999Z,5.40
2023-03-12T11:45:20.827Z,5.90
2023-03-12T11:48:15.801Z,5.70
2023-03-12T11:51:10.030Z,5.90
2023-03-12T11:57:07.835Z,5.90
2023-03-12T12:00:07.991Z,5.90
2023-03-12T12:02:35.151Z,5.90
2023-03-12T12:06:01.027Z,6.00
2023-03-12T12:09:30.304Z,6.00
2023-03-12T12:12:27.000Z,6.00
2023-03-12T12:18:58.143Z,6.10
2023-03-12T12:24:37.361Z,6.10
2023-03-12T12:27:27.330Z,6.00
2023-03-12T12:30:22.946Z,5.90
2023-03-12T12:33:25.143Z,5.80
2023-03-12T12:35:51.872Z,5.70
2023-03-12T12:38:37.569Z,5.60
2023-03-12T12:41:13.896Z,5.60
2023-03-12T12:43:42.492Z,5.60
2023-03-12T12:46:32.508Z,5.60
2023-03-12T12:49:14.134Z,5.70
2023-03-12T12:51:46.092Z,5.60
2023-03-12T12:54:24.265Z,5.70
2023-03-12T12:56:50.830Z,5.60
2023-03-12T12:59:42.251Z,5.60
2023-03-12T13:02:22.242Z,5.60
2023-03-12T13:04:51.621Z,5.50
2023-03-12T13:07:21.483Z,5.40
2023-03-12T13:09:51.105Z,5.40
2023-03-12T13:12:46.587Z,5.50
2023-03-12T13:15:45.000Z,5.40
2023-03-12T13:18:31.283Z,5.40
2023-03-12T13:21:17.298Z,5.40
2023-03-12T13:23:55.340Z,5.30
2023-03-12T13:26:30.951Z,5.30
2023-03-12T13:29:13.065Z,5.30
2023-03-12T13:31:42.100Z,5.30
2023-03-12T13:34:17.992Z,5.40
2023-03-12T13:36:47.150Z,5.40
2023-03-12T13:39:30.567Z,5.50
2023-03-12T13:41:58.697Z,5.50
2023-03-12T13:44:40.168Z,5.50
2023-03-12T13:47:30.890Z,5.40
2023-03-12T13:50:08.311Z,5.30
2023-03-12T13:52:46.993Z,5.10
2023-03-12T13:55:13.613Z,5.00
2023-03-12T13:57:50.177Z,4.90
2023-03-12T14:00:41.729Z,4.90
2023-03-12T14:03:31.399Z,4.90
2023-03-12T14:06:05.648Z,4.90
2023-03-12T14:09:00.432Z,4.90
2023-03-12T14:12:05.853Z,4.90
2023-03-12T14:14:52.391Z,4.90
2023-03-12T14:17:27.277Z,4.70
2023-03-12T14:20:17.565Z,4.80
2023-03-12T14:22:49.917Z,4.70
2023-03-12T14:25:29.682Z,4.60
2023-03-12T14:27:57.151Z,4.60
2023-03-12T14:30:32.358Z,4.60
2023-03-12T14:33:02.957Z,4.60
2023-03-12T14:35:40.533Z,4.70
2023-03-12T14:38:25.464Z,4.70
2023-03-12T14:41:08.077Z,4.80
2023-03-12T14:43:35.675Z,4.80
2023-03-12T14:46:14.864Z,4.80
2023-03-12T14:48:41.477Z,4.80
2023-03-12T14:51:08.343Z,4.70
2023-03-12T14:53:39.514Z,4.60
2023-03-12T14:56:07.344Z,4.60
2023-03-12T14:58:36.846Z,5.10
2023-03-12T15:01:06.993Z,4.50
2023-03-12T15:03:42.444Z,4.50
2023-03-12T15:06:27.835Z,4.50
2023-03-12T15:08:55.141Z,4.50
2023-03-12T15:11:25.690Z,4.50
2023-03-12T15:13:54.863Z,4.40
2023-03-12T15:16:22.936Z,4.40
2023-03-12T15:18:52.911Z,4.40
2023-03-12T15:21:24.665Z,4.50
2023-03-12T15:23:51.682Z,4.40
2023-03-12T15:26:21.499Z,4.50
2023-03-12T15:29:15.113Z,4.50
2023-03-12T15:31:49.369Z,4.50
2023-03-12T15:34:37.797Z,4.40
2023-03-12T15:37:29.740Z,4.30
2023-03-12T15:39:57.740Z,4.30
2023-03-12T15:42:26.858Z,4.70
2023-03-12T15:45:05.376Z,4.40
2023-03-12T15:47:39.436Z,4.40
2023-03-12T15:50:17.425Z,4.40
2023-03-12T15:53:18.007Z,4.40
2023-03-12T15:56:06.439Z,4.30
2023-03-12T15:58:37.214Z,4.20
2023-03-12T16:01:12.548Z,4.30
2023-03-12T16:03:41.486Z,4.20
2023-03-12T16:06:14.060Z,4.20
2023-03-12T16:08:52.489Z,4.20
2023-03-12T16:11:39.241Z,4.20
2023-03-12T16:14:24.389Z,4.10
2023-03-12T16:16:51.488Z,4.10
2023-03-12T16:19:21.001Z,4.10
2023-03-12T16:21:48.251Z,4.10
2023-03-12T16:24:19.997Z,4.00
2023-03-12T16:26:52.824Z,4.00
2023-03-12T16:29:20.477Z,4.00
2023-03-12T16:31:55.611Z,4.00
2023-03-12T16:34:23.368Z,4.10
2023-03-12T16:36:50.461Z,4.10
2023-03-12T16:39:18.830Z,4.10
2023-03-12T16:41:46.130Z,4.00
2023-03-12T16:44:19.870Z,4.00
2023-03-12T16:46:46.813Z,4.00
2023-03-12T16:49:16.381Z,4.00
2023-03-12T16:51:43.260Z,4.10
2023-03-12T16:54:12.225Z,4.10
2023-03-12T16:56:42.521Z,4.10
2023-03-12T16:59:25.688Z,4.10
2023-03-12T17:01:52.833Z,4.20
2023-03-12T17:04:19.777Z,4.20
2023-03-12T17:06:46.570Z,4.10
2023-03-12T17:09:13.253Z,4.20
2023-03-12T17:11:40.690Z,4.30
2023-03-12T17:14:17.230Z,4.30
2023-03-12T17:16:43.859Z,4.40
2023-03-12T17:19:10.562Z,4.40
2023-03-12T17:21:37.490Z,4.40
2023-03-12T17:24:04.662Z,4.40
2023-03-12T17:26:31.316Z,4.40
2023-03-12T17:28:58.316Z,4.40
2023-03-12T17:31:25.052Z,4.50
2023-03-12T17:33:51.781Z,4.50
2023-03-12T17:36:18.790Z,4.50
2023-03-12T17:38:45.431Z,4.50
2023-03-12T17:41:25.519Z,4.50
2023-03-12T17:43:53.994Z,4.60
2023-03-12T17:46:20.736Z,4.50
2023-03-12T17:48:47.539Z,4.50
2023-03-12T17:51:14.379Z,4.40
2023-03-12T17:53:42.175Z,4.50
2023-03-12T17:56:09.210Z,4.50
2023-03-12T17:58:35.882Z,4.50
2023-03-12T18:01:02.551Z,4.60
2023-03-12T18:03:29.259Z,4.60
2023-03-12T18:05:56.123Z,4.60
2023-03-12T18:08:22.980Z,4.60
2023-03-12T18:10:49.815Z,4.60
2023-03-12T18:16:07.633Z,4.70
2023-03-12T18:18:34.683Z,4.70
2023-03-12T18:21:01.353Z,4.70
2023-03-12T18:23:29.015Z,4.80
2023-03-12T18:25:55.814Z,4.80
2023-03-12T18:28:25.226Z,4.90
2023-03-12T18:30:53.943Z,4.90
2023-03-12T18:33:20.945Z,4.90
2023-03-12T18:35:47.778Z,5.00
2023-03-12T18:38:14.612Z,5.00
2023-03-12T18:40:41.358Z,5.00
2023-03-12T18:43:08.536Z,5.10
2023-03-12T18:45:35.228Z,5.10
2023-03-12T18:48:02.705Z,5.10
2023-03-12T18:50:29.692Z,5.10
2023-03-12T18:52:56.279Z,5.20
2023-03-12T18:55:23.227Z,5.20
2023-03-12T18:57:50.905Z,5.30
2023-03-12T19:00:18.815Z,5.30
2023-03-12T19:02:47.987Z,5.30
2023-03-12T19:05:16.507Z,5.40
2023-03-12T19:07:43.834Z,5.40
2023-03-12T19:10:11.908Z,5.40
2023-03-12T19:12:50.934Z,5.50
2023-03-12T19:15:19.677Z,5.50
2023-03-12T19:17:46.294Z,5.60
2023-03-12T19:20:13.288Z,5.60
2023-03-12T19:22:40.089Z,5.60
2023-03-12T19:25:07.250Z,5.70
2023-03-12T19:27:34.118Z,5.70
2023-03-12T19:30:00.921Z,5.80
2023-03-12T19:32:40.557Z,5.80
2023-03-12T19:35:11.052Z,5.80
2023-03-12T19:37:43.191Z,5.90
2023-03-12T19:40:10.946Z,5.90
2023-03-12T19:42:37.918Z,6.00
2023-03-12T19:45:04.962Z,6.00
2023-03-12T19:47:33.333Z,6.00
2023-03-12T19:50:00.925Z,6.10
2023-03-12T19:52:27.757Z,6.20
2023-03-12T19:55:04.329Z,6.20
2023-03-12T19:57:32.011Z,6.20
2023-03-12T19:59:59.181Z,6.30
2023-03-12T20:02:26.732Z,6.30
2023-03-12T20:04:55.156Z,6.30
2023-03-12T20:07:21.785Z,6.40
2023-03-12T20:09:48.559Z,6.50
2023-03-12T20:12:15.365Z,6.50
2023-03-12T20:14:42.980Z,6.50
2023-03-12T20:17:09.844Z,6.50
2023-03-12T20:19:38.642Z,6.60
2023-03-12T20:22:06.236Z,6.50
2023-03-12T20:24:34.899Z,6.60
2023-03-12T20:27:02.419Z,6.70
2023-03-12T20:29:31.298Z,6.70
2023-03-12T20:31:58.143Z,6.80
2023-03-12T20:34:27.680Z,6.90
2023-03-12T20:36:54.493Z,6.80
2023-03-12T20:39:21.310Z,6.80
2023-03-12T20:41:49.826Z,6.90
2023-03-12T20:44:17.074Z,7.00
2023-03-12T20:46:43.909Z,6.90
2023-03-12T20:49:10.676Z,6.90
2023-03-12T20:51:37.310Z,6.90
2023-03-12T20:54:06.859Z,7.00
2023-03-12T20:56:33.462Z,7.00
2023-03-12T20:59:00.061Z,7.00
2023-03-12T21:01:27.280Z,7.00
2023-03-12T21:03:59.605Z,7.10
2023-03-12T21:06:26.563Z,7.10
2023-03-12T21:08:56.116Z,7.10
2023-03-12T21:11:23.039Z,7.10
2023-03-12T21:13:49.750Z,7.10
2023-03-12T21:16:16.648Z,7.10
2023-03-12T21:18:43.347Z,7.10
2023-03-12T21:21:10.091Z,7.10
2023-03-12T21:23:38.780Z,7.10
2023-03-12T21:26:09.192Z,7.20
2023-03-12T21:28:36.440Z,7.20
2023-03-12T21:31:08.631Z,7.30
2023-03-12T21:33:35.386Z,7.30
2023-03-12T21:36:06.755Z,7.20
2023-03-12T21:38:35.633Z,7.30
2023-03-12T21:41:11.245Z,7.30
2023-03-12T21:43:38.506Z,7.30
2023-03-12T21:46:07.366Z,7.30
2023-03-12T21:48:35.125Z,7.40
2023-03-12T21:51:07.862Z,7.40
2023-03-12T21:53:35.735Z,7.40
2023-03-12T21:56:04.208Z,7.50
2023-03-12T21:58:31.888Z,7.40
2023-03-12T22:01:14.688Z,7.50
2023-03-12T22:03:43.084Z,7.40
2023-03-12T22:06:11.039Z,7.40
2023-03-12T22:08:38.687Z,7.40
2023-03-12T22:11:06.359Z,7.40
2023-03-12T22:13:32.997Z,7.40
2023-03-12T22:16:02.794Z,7.50
2023-03-12T22:18:30.373Z,7.40
2023-03-12T22:21:00.882Z,7.40
2023-03-12T22:23:27.972Z,7.50
2023-03-12T22:25:54.896Z,7.50
2023-03-12T22:28:24.622Z,7.50
2023-03-12T22:30:57.620Z,7.50
2023-03-12T22:33:24.525Z,7.50
2023-03-12T22:35:51.420Z,7.40
2023-03-12T22:38:18.162Z,7.40
2023-03-12T22:40:44.996Z,7.40
2023-03-12T22:43:11.781Z,7.40
2023-03-12T22:45:38.319Z,7.40
2023-03-12T22:48:05.238Z,7.30
2023-03-12T22:50:32.374Z,7.40
2023-03-12T22:52:59.570Z,7.40
2023-03-12T22:55:26.443Z,7.30
2023-03-12T22:57:53.109Z,7.40
2023-03-12T23:00:23.919Z,7.30
2023-03-12T23:02:51.168Z,7.40
2023-03-12T23:05:18.058Z,7.30
2023-03-12T23:07:44.972Z,7.30
2023-03-12T23:10:11.858Z,7.30
2023-03-12T23:12:38.395Z,7.40
2023-03-12T23:15:06.172Z,7.30
2023-03-12T23:17:33.007Z,7.30
2023-03-12T23:19:59.638Z,7.30
2023-03-12T23:22:26.265Z,7.30
2023-03-12T23:24:53.240Z,7.30
2023-03-12T23:27:19.842Z,7.30
2023-03-12T23:29:46.587Z,7.40
2023-03-12T23:32:13.992Z,7.40
2023-03-12T23:34:40.575Z,7.50
2023-03-12T23:37:07.300Z,7.50
2023-03-12T23:39:42.213Z,7.50
2023-03-12T23:42:18.533Z,7.50
2023-03-12T23:44:46.303Z,7.60
2023-03-12T23:47:12.937Z,7.50
2023-03-12T23:49:39.693Z,7.60
2023-03-12T23:52:06.718Z,7.50
2023-03-12T23:54:33.427Z,7.50
2023-03-12T23:57:00.178Z,7.50
2023-03-12T23:59:27.236Z,7.50
